Ana Sayfa
METAR-TAF:

METAR-TAF

Havaalanları :

Franklin County, Vermont, Amerika Birleşik Devletleri

Enlem: 44-56-25N, Boylam: 073-05-51W, yükseklik: 69 m

Güncel hava durumu gözlemi

Rapor saat 15:35 UTC de 21 dakika önce yapıldı.
Rüzgar kuzey/kuzeybatıdan 5 kt
Sıcaklık 5°C
Nem 81%
Basınç 1010 hPa
Görüş mesafesi: 16.1 km
1900 ft yükseklikte parçalı çok bulutlu
3600 ft yükseklikte çok bulutlu
hafif yağmur

METAR: KFSO 021535Z AUTO 34005KT 10SM -RA BKN019 OVC036 05/02 A2982 RMK AO2 T00530016

Saat: 11:56 (15:56 UTC)


TAF: eksik

4.000'den fazla havaalanı için hava durumu gözlemleri ve tahminleri (METAR ve TAF raporları).

Kullanılabilir istasyonlar harita üzerinde sarı ve kırmızı noktalarla gösterilir.

İstasyonun adını görmek için fareyi noktanın üzerinde gezdirin.

Sonrasında hava gözlem ve tahminlerini görmek için tıklayın.

Haritayı değiştirmek için: yaklaştırmak için siyah artı işaretli yeşil düğmeye ve uzaklaştırmak için de eksi işaretli düğmeye hızla tıklayın; bitişik haritalar için yeşil okları kullanın.


METAR-TAF: